createdAt,value
2023-02-27T00:00:55.346Z,4.09
2023-02-27T00:01:56.836Z,4.01
2023-02-27T00:02:58.714Z,3.86
2023-02-27T00:04:01.086Z,3.68
2023-02-27T00:05:02.663Z,3.71
2023-02-27T00:06:04.656Z,3.73
2023-02-27T00:07:07.214Z,3.73
2023-02-27T00:08:08.739Z,3.79
2023-02-27T00:09:10.630Z,3.83
2023-02-27T00:10:12.649Z,3.75
2023-02-27T00:11:14.315Z,3.87
2023-02-27T00:12:15.843Z,3.96
2023-02-27T00:13:17.485Z,4.02
2023-02-27T00:14:19.091Z,4.03
2023-02-27T00:15:20.734Z,4.07
2023-02-27T00:16:22.315Z,3.99
2023-02-27T00:17:27.977Z,3.94
2023-02-27T00:18:29.478Z,4.05
2023-02-27T00:19:31.207Z,4.02
2023-02-27T00:20:37.801Z,3.90
2023-02-27T00:21:39.845Z,3.94
2023-02-27T00:22:41.595Z,4.06
2023-02-27T00:23:43.420Z,4.10
2023-02-27T00:24:44.927Z,4.17
2023-02-27T00:25:46.497Z,4.13
2023-02-27T00:26:47.961Z,4.20
2023-02-27T00:27:49.464Z,4.18
2023-02-27T00:28:50.992Z,4.08
2023-02-27T00:29:52.480Z,4.01
2023-02-27T00:30:54.200Z,4.05
2023-02-27T00:31:55.899Z,4.09
2023-02-27T00:32:57.785Z,4.09
2023-02-27T00:33:59.285Z,4.15
2023-02-27T00:35:00.757Z,4.19
2023-02-27T00:36:02.502Z,4.03
2023-02-27T00:37:04.026Z,3.92
2023-02-27T00:38:05.959Z,3.89
2023-02-27T00:39:07.539Z,3.89
2023-02-27T00:40:09.773Z,3.88
2023-02-27T00:41:11.286Z,3.91
2023-02-27T00:42:12.842Z,4.01
2023-02-27T00:43:14.631Z,3.98
2023-02-27T00:44:16.333Z,4.03
2023-02-27T00:45:18.545Z,4.03
2023-02-27T00:46:20.164Z,4.11
2023-02-27T00:47:21.742Z,4.09
2023-02-27T00:48:23.427Z,3.99
2023-02-27T00:49:25.555Z,3.97
2023-02-27T00:50:27.082Z,3.81
2023-02-27T00:51:28.742Z,3.94
2023-02-27T00:52:30.360Z,4.03
2023-02-27T00:53:31.851Z,3.89
2023-02-27T00:54:33.349Z,3.83
2023-02-27T00:55:34.958Z,3.86
2023-02-27T00:56:36.858Z,3.81
2023-02-27T00:57:39.248Z,3.58
2023-02-27T00:58:41.127Z,3.81
2023-02-27T00:59:42.710Z,3.77
2023-02-27T01:00:44.322Z,3.65
2023-02-27T01:01:45.869Z,3.55
2023-02-27T01:02:47.411Z,3.45
2023-02-27T01:03:48.982Z,3.54
2023-02-27T01:04:50.478Z,3.67
2023-02-27T01:05:52.072Z,3.53
2023-02-27T01:06:53.579Z,3.58
2023-02-27T01:07:55.607Z,3.62
2023-02-27T01:08:57.102Z,3.75
2023-02-27T01:09:59.025Z,3.77
2023-02-27T01:11:00.660Z,3.70
2023-02-27T01:12:02.185Z,3.79
2023-02-27T01:13:03.951Z,3.76
2023-02-27T01:14:05.527Z,3.66
2023-02-27T01:15:07.847Z,3.67
2023-02-27T01:16:10.514Z,3.68
2023-02-27T01:17:12.090Z,3.68
2023-02-27T01:18:13.893Z,3.75
2023-02-27T01:19:15.662Z,3.57
2023-02-27T01:20:17.248Z,3.59
2023-02-27T01:21:18.791Z,3.70
2023-02-27T01:22:20.303Z,3.78
2023-02-27T01:23:22.495Z,3.77
2023-02-27T01:24:24.037Z,3.79
2023-02-27T01:25:25.529Z,3.69
2023-02-27T01:26:27.042Z,3.62
2023-02-27T01:27:28.537Z,3.59
2023-02-27T01:28:30.432Z,3.66
2023-02-27T01:29:31.932Z,3.67
2023-02-27T01:30:33.436Z,3.51
2023-02-27T01:31:34.985Z,3.59
2023-02-27T01:32:36.899Z,3.65
2023-02-27T01:33:38.414Z,3.55
2023-02-27T01:34:39.937Z,3.55
2023-02-27T01:35:41.437Z,3.68
2023-02-27T01:36:42.958Z,3.67
2023-02-27T01:37:44.988Z,3.70
2023-02-27T01:38:46.785Z,3.75
2023-02-27T01:39:48.316Z,3.77
2023-02-27T01:40:49.785Z,3.73
2023-02-27T01:41:51.286Z,3.65
2023-02-27T01:42:53.133Z,3.71
2023-02-27T01:43:55.573Z,3.68
2023-02-27T01:45:12.700Z,3.81
2023-02-27T01:46:14.264Z,3.82
2023-02-27T01:47:15.791Z,3.74
2023-02-27T01:48:27.510Z,3.73
2023-02-27T01:49:31.869Z,3.83
2023-02-27T01:50:34.066Z,3.76
2023-02-27T01:51:45.148Z,3.83
2023-02-27T01:52:59.411Z,3.74
2023-02-27T01:54:00.997Z,3.69
2023-02-27T01:55:03.230Z,3.63
2023-02-27T01:56:25.750Z,3.75
2023-02-27T01:57:27.263Z,3.75
2023-02-27T01:58:28.751Z,3.66
2023-02-27T01:59:30.279Z,3.50
2023-02-27T02:00:32.032Z,3.35
2023-02-27T02:01:34.400Z,3.43
2023-02-27T02:02:40.651Z,3.43
2023-02-27T02:03:56.494Z,3.46
2023-02-27T02:04:58.079Z,3.55
2023-02-27T02:06:00.534Z,3.55
2023-02-27T02:07:10.115Z,3.32
2023-02-27T02:08:12.078Z,3.41
2023-02-27T02:09:14.297Z,3.34
2023-02-27T02:10:16.417Z,3.36
2023-02-27T02:11:18.497Z,3.45
2023-02-27T02:12:22.851Z,3.39
2023-02-27T02:13:24.384Z,3.38
2023-02-27T02:14:25.877Z,3.19
2023-02-27T02:15:33.427Z,3.23
2023-02-27T02:16:44.663Z,3.17
2023-02-27T02:18:04.150Z,3.27
2023-02-27T02:19:21.211Z,3.31
2023-02-27T02:21:06.737Z,3.47
2023-02-27T02:22:14.100Z,3.47
2023-02-27T02:23:36.889Z,3.44
2023-02-27T02:25:17.816Z,3.54
2023-02-27T02:26:45.161Z,3.63
2023-02-27T02:27:52.820Z,3.77
2023-02-27T02:29:13.180Z,3.77
2023-02-27T02:30:36.562Z,3.67
2023-02-27T02:32:03.013Z,3.60
2023-02-27T02:33:04.555Z,3.54
2023-02-27T02:34:23.389Z,3.55
2023-02-27T02:35:36.828Z,3.67
2023-02-27T02:37:17.314Z,3.63
2023-02-27T02:38:24.585Z,3.60
2023-02-27T02:39:55.511Z,3.49
2023-02-27T02:41:16.914Z,3.45
2023-02-27T02:42:59.289Z,3.50
2023-02-27T02:44:14.753Z,3.62
2023-02-27T02:45:32.600Z,3.56
2023-02-27T02:46:47.960Z,3.65
2023-02-27T02:48:01.215Z,3.96
2023-02-27T02:49:48.235Z,3.76
2023-02-27T02:51:15.569Z,3.80
2023-02-27T02:52:22.899Z,3.69
2023-02-27T02:53:42.955Z,3.53
2023-02-27T02:55:03.180Z,3.44
2023-02-27T02:56:25.238Z,3.23
2023-02-27T02:57:30.389Z,3.15
2023-02-27T02:59:05.115Z,3.02
2023-02-27T03:00:33.764Z,3.09
2023-02-27T03:01:37.981Z,3.22
2023-02-27T03:02:45.074Z,3.25
2023-02-27T03:03:57.457Z,3.35
2023-02-27T03:05:23.710Z,3.27
2023-02-27T03:06:33.595Z,3.33
2023-02-27T03:07:39.232Z,3.33
2023-02-27T03:08:43.875Z,3.15
2023-02-27T03:10:08.743Z,3.17
2023-02-27T03:11:10.638Z,3.07
2023-02-27T03:12:14.252Z,2.95
2023-02-27T03:13:20.930Z,2.66
2023-02-27T03:14:42.007Z,2.39
2023-02-27T03:15:46.513Z,2.46
2023-02-27T03:16:50.269Z,2.47
2023-02-27T03:17:55.782Z,2.42
2023-02-27T03:19:11.525Z,2.51
2023-02-27T03:20:16.545Z,2.68
2023-02-27T03:21:43.133Z,2.88
2023-02-27T03:22:46.397Z,2.84
2023-02-27T03:23:48.454Z,2.77
2023-02-27T03:24:54.102Z,2.64
2023-02-27T03:25:58.064Z,2.54
2023-02-27T03:27:02.928Z,2.66
2023-02-27T03:28:09.934Z,2.67
2023-02-27T03:29:14.526Z,2.59
2023-02-27T03:30:41.546Z,2.53
2023-02-27T03:32:18.466Z,2.74
2023-02-27T03:33:31.751Z,2.66
2023-02-27T03:34:34.445Z,2.68
2023-02-27T03:35:59.024Z,2.71
2023-02-27T03:37:03.766Z,2.79
2023-02-27T03:38:25.213Z,2.76
2023-02-27T03:39:48.894Z,2.85
2023-02-27T03:41:08.319Z,2.91
2023-02-27T03:42:31.023Z,3.02
2023-02-27T03:44:08.955Z,3.03
2023-02-27T03:45:50.665Z,3.21
2023-02-27T03:46:52.196Z,3.21
2023-02-27T03:47:54.042Z,3.07
2023-02-27T03:48:55.613Z,3.03
2023-02-27T03:49:57.170Z,3.00
2023-02-27T03:50:58.706Z,3.01
2023-02-27T03:52:00.212Z,3.04
2023-02-27T03:53:01.869Z,3.06
2023-02-27T03:54:10.603Z,3.07
2023-02-27T03:55:14.890Z,3.04
2023-02-27T03:56:16.930Z,3.08
2023-02-27T03:57:18.506Z,3.12
2023-02-27T03:58:19.990Z,2.97
2023-02-27T03:59:22.394Z,2.93
2023-02-27T04:00:24.969Z,2.81
2023-02-27T04:01:26.933Z,2.69
2023-02-27T04:02:28.666Z,2.75
2023-02-27T04:03:30.880Z,2.73
2023-02-27T04:04:32.781Z,2.71
2023-02-27T04:05:34.320Z,2.81
2023-02-27T04:07:12.197Z,2.93
2023-02-27T04:08:27.777Z,2.96
2023-02-27T04:09:50.682Z,2.99
2023-02-27T04:11:27.819Z,3.08
2023-02-27T04:12:56.075Z,3.04
2023-02-27T04:14:26.913Z,2.94
2023-02-27T04:15:47.037Z,2.78
2023-02-27T04:17:03.537Z,2.63
2023-02-27T04:18:29.757Z,2.57
2023-02-27T04:19:39.930Z,2.66
2023-02-27T04:20:46.199Z,2.62
2023-02-27T04:22:28.999Z,2.70
2023-02-27T04:23:37.710Z,2.68
2023-02-27T04:24:46.305Z,2.57
2023-02-27T04:26:12.052Z,2.62
2023-02-27T04:27:23.188Z,2.59
2023-02-27T04:28:28.013Z,2.51
2023-02-27T04:29:48.243Z,2.44
2023-02-27T04:31:01.065Z,2.47
2023-02-27T04:32:06.566Z,2.51
2023-02-27T04:33:10.743Z,2.52
2023-02-27T04:34:23.837Z,2.32
2023-02-27T04:35:37.378Z,2.27
2023-02-27T04:36:49.690Z,2.38
2023-02-27T04:37:55.204Z,2.47
2023-02-27T04:39:09.742Z,2.56
2023-02-27T04:40:12.861Z,2.71
2023-02-27T04:41:19.470Z,3.08
2023-02-27T04:42:24.168Z,3.10
2023-02-27T04:43:26.261Z,2.94
2023-02-27T04:44:28.296Z,2.93
2023-02-27T04:45:29.900Z,2.90
2023-02-27T04:46:31.422Z,2.87
2023-02-27T04:47:36.900Z,2.87
2023-02-27T04:48:57.144Z,3.05
2023-02-27T04:50:01.773Z,3.06
2023-02-27T04:51:11.449Z,3.04
2023-02-27T04:52:18.865Z,3.13
2023-02-27T04:53:23.782Z,3.00
2023-02-27T04:54:30.245Z,3.03
2023-02-27T04:55:36.338Z,2.99
2023-02-27T04:56:44.628Z,2.96
2023-02-27T04:57:49.811Z,2.95
2023-02-27T04:58:54.025Z,2.94
2023-02-27T04:59:56.042Z,2.86
2023-02-27T05:01:03.810Z,2.83
2023-02-27T05:02:18.546Z,2.84
2023-02-27T05:03:24.501Z,2.73
2023-02-27T05:04:27.269Z,2.57
2023-02-27T05:05:30.553Z,2.41
2023-02-27T05:06:33.800Z,2.40
2023-02-27T05:08:04.322Z,2.38
2023-02-27T05:09:19.293Z,2.47
2023-02-27T05:10:35.888Z,2.36
2023-02-27T05:11:46.146Z,2.36
2023-02-27T05:12:53.060Z,2.30
2023-02-27T05:14:01.192Z,2.13
2023-02-27T05:15:16.196Z,1.86
2023-02-27T05:16:33.229Z,2.03
2023-02-27T05:17:37.458Z,2.05
2023-02-27T05:18:39.063Z,2.15
2023-02-27T05:19:41.742Z,2.04
2023-02-27T05:21:26.576Z,2.18
2023-02-27T05:22:47.476Z,2.17
2023-02-27T05:24:03.859Z,2.46
2023-02-27T05:25:29.280Z,2.43
2023-02-27T05:26:55.242Z,2.44
2023-02-27T05:28:01.942Z,2.47
2023-02-27T05:29:09.581Z,2.30
2023-02-27T05:30:32.274Z,2.25
2023-02-27T05:31:49.686Z,2.37
2023-02-27T05:32:54.821Z,2.43
2023-02-27T05:34:04.318Z,2.20
2023-02-27T05:35:26.282Z,2.25
2023-02-27T05:36:40.576Z,2.41
2023-02-27T05:37:56.805Z,2.49
2023-02-27T05:39:08.908Z,2.57
2023-02-27T05:40:12.938Z,2.56
2023-02-27T05:41:19.356Z,2.48
2023-02-27T05:42:28.703Z,2.50
2023-02-27T05:43:35.686Z,2.58
2023-02-27T05:44:42.788Z,2.56
2023-02-27T05:45:45.823Z,2.64
2023-02-27T05:46:52.333Z,2.95
2023-02-27T05:47:57.618Z,2.71
2023-02-27T05:49:05.027Z,2.68
2023-02-27T05:50:10.229Z,2.70
2023-02-27T05:51:12.104Z,2.67
2023-02-27T05:52:16.144Z,2.65
2023-02-27T05:53:18.954Z,2.66
2023-02-27T05:54:24.752Z,2.73
2023-02-27T05:55:38.428Z,2.71
2023-02-27T05:56:40.093Z,2.73
2023-02-27T05:58:09.014Z,2.49
2023-02-27T05:59:14.668Z,2.59
2023-02-27T06:00:20.457Z,2.57
2023-02-27T06:01:24.922Z,2.53
2023-02-27T06:02:26.551Z,2.46
2023-02-27T06:03:28.664Z,2.32
2023-02-27T06:04:30.242Z,2.16
2023-02-27T06:05:31.989Z,2.15
2023-02-27T06:06:33.519Z,2.18
2023-02-27T06:07:35.139Z,2.14
2023-02-27T06:08:36.706Z,2.19
2023-02-27T06:09:38.367Z,2.21
2023-02-27T06:10:39.927Z,2.18
2023-02-27T06:11:44.143Z,2.05
2023-02-27T06:12:45.785Z,2.14
2023-02-27T06:13:47.315Z,2.17
2023-02-27T06:14:48.853Z,2.09
2023-02-27T06:15:50.371Z,2.27
2023-02-27T06:16:52.048Z,2.16
2023-02-27T06:17:53.625Z,2.06
2023-02-27T06:18:55.569Z,1.97
2023-02-27T06:19:57.334Z,1.95
2023-02-27T06:20:58.901Z,1.84
2023-02-27T06:22:00.566Z,2.01
2023-02-27T06:23:02.195Z,1.98
2023-02-27T06:24:03.919Z,2.10
2023-02-27T06:25:05.965Z,2.04
2023-02-27T06:26:07.509Z,2.04
2023-02-27T06:27:09.371Z,2.06
2023-02-27T06:28:11.369Z,2.07
2023-02-27T06:29:13.704Z,2.04
2023-02-27T06:30:15.397Z,2.11
2023-02-27T06:31:17.039Z,2.08
2023-02-27T06:32:18.729Z,2.02
2023-02-27T06:33:20.290Z,2.12
2023-02-27T06:34:21.911Z,2.16
2023-02-27T06:35:23.498Z,2.23
2023-02-27T06:36:25.326Z,2.25
2023-02-27T06:37:27.250Z,2.33
2023-02-27T06:38:28.824Z,2.30
2023-02-27T06:39:30.326Z,2.36
2023-02-27T06:40:32.004Z,2.47
2023-02-27T06:41:33.999Z,2.39
2023-02-27T06:42:35.579Z,2.45
2023-02-27T06:43:37.272Z,2.51
2023-02-27T06:44:38.826Z,2.59
2023-02-27T06:45:40.329Z,2.53
2023-02-27T06:46:42.044Z,2.40
2023-02-27T06:47:43.606Z,2.48
2023-02-27T06:48:45.618Z,2.46
2023-02-27T06:49:47.139Z,2.54
2023-02-27T06:50:56.216Z,2.58
2023-02-27T06:51:57.765Z,2.78
2023-02-27T06:52:59.291Z,2.78
2023-02-27T06:54:00.848Z,2.76
2023-02-27T06:55:02.411Z,2.79
2023-02-27T06:56:04.149Z,2.88
2023-02-27T06:57:05.673Z,2.81
2023-02-27T06:58:07.211Z,2.74
2023-02-27T06:59:08.745Z,2.58
2023-02-27T07:00:12.570Z,2.50
2023-02-27T07:01:14.591Z,2.53
2023-02-27T07:02:16.346Z,2.48
2023-02-27T07:03:17.901Z,2.46
2023-02-27T07:04:19.480Z,2.37
2023-02-27T07:05:21.046Z,2.37
2023-02-27T07:07:32.240Z,2.34
2023-02-27T07:07:44.027Z,2.29
2023-02-27T07:09:01.165Z,2.18
2023-02-27T07:10:11.181Z,2.25
2023-02-27T07:11:12.759Z,2.30
2023-02-27T07:12:14.342Z,2.31
2023-02-27T07:13:19.376Z,2.32
2023-02-27T07:14:21.239Z,2.45
2023-02-27T07:15:22.862Z,2.41
2023-02-27T07:16:24.424Z,2.37
2023-02-27T07:17:26.021Z,2.49
2023-02-27T07:18:27.671Z,2.51
2023-02-27T07:19:29.305Z,2.34
2023-02-27T07:20:30.915Z,2.41
2023-02-27T07:21:32.415Z,2.44
2023-02-27T07:22:34.190Z,2.23
2023-02-27T07:23:35.950Z,2.32
2023-02-27T07:24:37.504Z,2.51
2023-02-27T07:25:39.007Z,2.60
2023-02-27T07:26:40.521Z,2.59
2023-02-27T07:27:44.414Z,2.65
2023-02-27T07:28:45.931Z,2.63
2023-02-27T07:29:47.494Z,2.68
2023-02-27T07:30:49.104Z,2.78
2023-02-27T07:31:50.702Z,2.87
2023-02-27T07:32:52.404Z,3.01
2023-02-27T07:33:53.885Z,2.98
2023-02-27T07:34:55.391Z,3.05
2023-02-27T07:35:57.055Z,3.08
2023-02-27T07:36:58.689Z,3.13
2023-02-27T07:38:03.951Z,3.31
2023-02-27T07:39:05.895Z,3.32
2023-02-27T07:40:07.746Z,3.18
2023-02-27T07:41:15.883Z,2.93
2023-02-27T07:42:22.853Z,3.04
2023-02-27T07:43:24.553Z,2.37
2023-02-27T07:44:26.088Z,2.59
2023-02-27T07:45:27.645Z,2.64
2023-02-27T07:46:29.517Z,2.72
2023-02-27T07:47:31.696Z,2.78
2023-02-27T07:48:33.348Z,2.90
2023-02-27T07:49:34.922Z,2.96
2023-02-27T07:50:36.753Z,3.04
2023-02-27T07:51:38.267Z,2.86
2023-02-27T07:52:43.145Z,2.70
2023-02-27T07:53:44.731Z,3.04
2023-02-27T07:54:46.210Z,3.23
2023-02-27T07:55:47.800Z,3.22
2023-02-27T07:56:49.506Z,3.24
2023-02-27T07:57:51.048Z,2.82
2023-02-27T07:58:52.585Z,3.06
2023-02-27T07:59:54.092Z,3.30
2023-02-27T08:00:55.603Z,3.26
2023-02-27T08:01:57.101Z,3.37
2023-02-27T08:02:58.702Z,3.41
2023-02-27T08:04:00.214Z,3.25
2023-02-27T08:05:01.712Z,3.16
2023-02-27T08:06:03.314Z,3.40
2023-02-27T08:07:05.191Z,3.57
2023-02-27T08:08:07.021Z,3.63
2023-02-27T08:09:08.676Z,3.76
2023-02-27T08:10:10.920Z,4.15
2023-02-27T08:11:12.421Z,4.67
2023-02-27T08:12:13.905Z,6.10
2023-02-27T08:13:17.895Z,7.88
2023-02-27T08:14:22.122Z,9.49
2023-02-27T08:15:24.632Z,10.70
2023-02-27T08:16:26.746Z,12.10
2023-02-27T08:17:28.531Z,13.21
2023-02-27T08:18:30.251Z,13.90
2023-02-27T08:19:31.813Z,13.97
2023-02-27T08:20:33.329Z,13.77
2023-02-27T08:21:34.966Z,13.42
2023-02-27T08:22:36.526Z,12.46
2023-02-27T08:23:38.047Z,11.42
2023-02-27T08:24:40.582Z,10.87
2023-02-27T08:25:42.104Z,10.26
2023-02-27T08:26:43.643Z,9.78
2023-02-27T08:27:45.196Z,9.25
2023-02-27T08:28:46.842Z,8.68
2023-02-27T08:29:51.090Z,8.32
2023-02-27T08:30:52.784Z,8.03
2023-02-27T08:31:54.360Z,7.63
2023-02-27T08:32:56.076Z,7.51
2023-02-27T08:34:04.422Z,7.46
2023-02-27T08:35:10.634Z,7.72
2023-02-27T08:36:12.226Z,7.94
2023-02-27T08:37:13.765Z,7.99
2023-02-27T08:38:15.675Z,8.32
2023-02-27T08:39:18.033Z,8.64
2023-02-27T08:40:22.462Z,8.76
2023-02-27T08:41:24.057Z,8.97
2023-02-27T08:42:26.919Z,8.89
2023-02-27T08:43:28.885Z,8.72
2023-02-27T08:44:30.453Z,8.23
2023-02-27T08:45:32.092Z,7.89
2023-02-27T08:46:36.101Z,7.90
2023-02-27T08:47:37.715Z,7.76
2023-02-27T08:48:39.739Z,7.35
2023-02-27T08:49:41.306Z,7.15
2023-02-27T08:50:42.967Z,7.17
2023-02-27T08:51:44.498Z,6.98
2023-02-27T08:52:46.041Z,7.01
2023-02-27T08:53:47.915Z,6.77
2023-02-27T08:54:49.466Z,6.59
2023-02-27T08:55:51.294Z,6.14
2023-02-27T08:56:52.841Z,6.43
2023-02-27T08:57:54.401Z,6.70
2023-02-27T08:58:56.317Z,6.69
2023-02-27T08:59:57.943Z,6.49
2023-02-27T09:00:59.556Z,6.68
2023-02-27T09:02:01.119Z,6.88
2023-02-27T09:03:02.788Z,6.74
2023-02-27T09:04:04.584Z,6.56
2023-02-27T09:05:06.336Z,6.01
2023-02-27T09:06:08.028Z,5.65
2023-02-27T09:07:09.550Z,5.58
2023-02-27T09:08:11.752Z,5.91
2023-02-27T09:09:13.298Z,6.56
2023-02-27T09:10:14.971Z,7.41
2023-02-27T09:11:17.197Z,8.29
2023-02-27T09:12:18.694Z,8.38
2023-02-27T09:13:21.998Z,7.62
2023-02-27T09:14:24.227Z,8.19
2023-02-27T09:15:25.883Z,8.81
2023-02-27T09:16:27.828Z,8.77
2023-02-27T09:17:29.536Z,9.27
2023-02-27T09:18:31.144Z,9.59
2023-02-27T09:19:32.782Z,9.59
2023-02-27T09:20:35.954Z,9.61
2023-02-27T09:21:37.587Z,9.43
2023-02-27T09:22:39.297Z,9.30
2023-02-27T09:23:41.224Z,9.12
2023-02-27T09:24:42.821Z,8.43
2023-02-27T09:25:44.815Z,8.09
2023-02-27T09:26:46.869Z,8.02
2023-02-27T09:27:48.504Z,6.86
2023-02-27T09:28:50.063Z,6.91
2023-02-27T09:29:55.604Z,7.12
2023-02-27T09:31:01.195Z,7.28
2023-02-27T09:32:02.851Z,7.39
2023-02-27T09:33:04.440Z,7.63
2023-02-27T09:34:06.011Z,7.77
2023-02-27T09:35:09.342Z,7.80
2023-02-27T09:36:10.918Z,7.82
2023-02-27T09:37:12.530Z,7.79
2023-02-27T09:38:14.034Z,7.47
2023-02-27T09:39:15.654Z,7.59
2023-02-27T09:40:25.475Z,7.35
2023-02-27T09:41:48.219Z,7.47
2023-02-27T09:42:49.788Z,7.45
2023-02-27T09:43:51.826Z,7.56
2023-02-27T09:44:57.914Z,7.61
2023-02-27T09:45:59.488Z,7.51
2023-02-27T09:47:01.187Z,7.52
2023-02-27T09:48:33.498Z,7.05
2023-02-27T09:49:41.686Z,6.92
2023-02-27T09:50:44.644Z,6.64
2023-02-27T09:51:46.181Z,6.96
2023-02-27T09:52:47.709Z,6.62
2023-02-27T09:53:51.627Z,6.46
2023-02-27T09:54:55.189Z,6.54
2023-02-27T09:56:00.815Z,6.18
2023-02-27T09:57:03.935Z,6.52
2023-02-27T09:58:23.192Z,6.06
2023-02-27T09:59:42.480Z,6.10
2023-02-27T10:01:02.519Z,6.12
2023-02-27T10:02:13.875Z,5.83
2023-02-27T10:03:37.058Z,5.75
2023-02-27T10:04:54.325Z,5.06
2023-02-27T10:05:59.238Z,4.85
2023-02-27T10:07:07.981Z,4.71
2023-02-27T10:08:09.428Z,4.93
2023-02-27T10:09:17.530Z,5.04
2023-02-27T10:10:21.776Z,4.99
2023-02-27T10:11:32.831Z,4.89
2023-02-27T10:12:45.117Z,4.15
2023-02-27T10:14:07.792Z,4.34
2023-02-27T10:15:27.519Z,4.72
2023-02-27T10:16:29.287Z,4.94
2023-02-27T10:17:35.217Z,4.57
2023-02-27T10:18:58.280Z,4.78
2023-02-27T10:20:01.106Z,4.88
2023-02-27T10:21:12.049Z,4.93
2023-02-27T10:22:14.953Z,5.53
2023-02-27T10:23:18.996Z,6.21
2023-02-27T10:24:29.482Z,6.77
2023-02-27T10:25:32.349Z,6.96
2023-02-27T10:26:36.411Z,6.96
2023-02-27T10:27:37.960Z,6.78
2023-02-27T10:28:39.802Z,6.48
2023-02-27T10:29:41.793Z,6.37
2023-02-27T10:30:54.792Z,5.56
2023-02-27T10:32:26.898Z,5.24
2023-02-27T10:33:37.546Z,5.10
2023-02-27T10:34:40.052Z,5.11
2023-02-27T10:35:44.027Z,4.82
2023-02-27T10:36:45.956Z,5.13
2023-02-27T10:37:53.085Z,5.38
2023-02-27T10:38:56.779Z,5.36
2023-02-27T10:40:00.535Z,5.33
2023-02-27T10:41:02.489Z,4.35
2023-02-27T10:42:06.743Z,5.02
2023-02-27T10:43:08.315Z,5.00
2023-02-27T10:44:10.531Z,4.89
2023-02-27T10:45:15.815Z,5.66
2023-02-27T10:46:21.042Z,6.28
2023-02-27T10:47:23.869Z,6.43
2023-02-27T10:48:25.456Z,6.46
2023-02-27T10:49:27.348Z,6.46
2023-02-27T10:50:33.771Z,6.32
2023-02-27T10:51:38.324Z,6.22
2023-02-27T10:53:00.183Z,6.41
2023-02-27T10:54:19.406Z,5.20
2023-02-27T10:55:38.937Z,5.23
2023-02-27T10:56:40.477Z,5.32
2023-02-27T10:57:42.474Z,5.44
2023-02-27T10:58:44.000Z,5.78
2023-02-27T10:59:59.761Z,4.87
2023-02-27T11:01:06.263Z,5.16
2023-02-27T11:02:16.347Z,5.02
2023-02-27T11:03:25.998Z,5.22
2023-02-27T11:04:40.598Z,5.85
2023-02-27T11:05:42.277Z,6.06
2023-02-27T11:06:43.802Z,6.33
2023-02-27T11:07:45.322Z,6.43
2023-02-27T11:08:48.472Z,6.56
2023-02-27T11:10:02.939Z,6.59
2023-02-27T11:11:05.333Z,6.27
2023-02-27T11:12:26.207Z,6.17
2023-02-27T11:13:32.829Z,6.18
2023-02-27T11:14:34.507Z,6.29
2023-02-27T11:15:37.490Z,5.88
2023-02-27T11:16:52.029Z,6.23
2023-02-27T11:17:55.076Z,6.60
2023-02-27T11:18:57.365Z,6.81
2023-02-27T11:20:00.252Z,6.18
2023-02-27T11:21:36.732Z,5.74
2023-02-27T11:22:38.282Z,5.89
2023-02-27T11:23:53.733Z,6.33
2023-02-27T11:25:21.029Z,6.60
2023-02-27T11:26:53.403Z,5.37
2023-02-27T11:28:01.449Z,5.03
2023-02-27T11:29:05.888Z,4.66
2023-02-27T11:30:27.216Z,4.55
2023-02-27T11:31:29.149Z,4.93
2023-02-27T11:32:45.018Z,5.07
2023-02-27T11:33:53.882Z,4.90
2023-02-27T11:34:55.430Z,4.49
2023-02-27T11:35:58.313Z,5.03
2023-02-27T11:37:07.405Z,5.16
2023-02-27T11:38:18.287Z,5.16
2023-02-27T11:39:37.646Z,5.41
2023-02-27T11:40:55.273Z,5.49
2023-02-27T11:41:58.161Z,5.81
2023-02-27T11:43:26.831Z,5.84
2023-02-27T11:44:50.186Z,5.77
2023-02-27T11:46:09.437Z,5.75
2023-02-27T11:47:28.620Z,5.66
2023-02-27T11:48:40.789Z,5.64
2023-02-27T11:50:17.948Z,5.68
2023-02-27T11:51:47.008Z,5.76
2023-02-27T11:53:02.883Z,5.89
2023-02-27T11:54:34.667Z,5.87
2023-02-27T11:55:36.493Z,5.90
2023-02-27T11:56:47.786Z,5.90
2023-02-27T11:57:52.427Z,5.71
2023-02-27T11:59:07.065Z,5.47
2023-02-27T12:00:17.016Z,5.43
2023-02-27T12:01:23.228Z,5.53
2023-02-27T12:02:45.076Z,5.64
2023-02-27T12:03:58.097Z,5.71
2023-02-27T12:05:17.503Z,5.79
2023-02-27T12:06:21.324Z,5.97
2023-02-27T12:07:34.438Z,5.99
2023-02-27T12:08:46.284Z,5.92
2023-02-27T12:10:06.415Z,6.03
2023-02-27T12:11:15.787Z,6.11
2023-02-27T12:12:22.739Z,5.75
2023-02-27T12:13:31.771Z,5.82
2023-02-27T12:14:37.880Z,5.91
2023-02-27T12:15:45.985Z,5.51
2023-02-27T12:17:03.656Z,5.74
2023-02-27T12:18:14.121Z,5.99
2023-02-27T12:19:33.473Z,6.18
2023-02-27T12:20:45.652Z,6.35
2023-02-27T12:21:50.212Z,6.31
2023-02-27T12:22:53.442Z,6.25
2023-02-27T12:24:25.099Z,6.08
2023-02-27T12:25:40.666Z,6.32
2023-02-27T12:26:43.437Z,6.52
2023-02-27T12:28:09.046Z,6.18
2023-02-27T12:29:16.733Z,6.18
2023-02-27T12:30:21.238Z,6.20
2023-02-27T12:31:36.595Z,6.32
2023-02-27T12:32:40.644Z,6.28
2023-02-27T12:33:46.707Z,6.14
2023-02-27T12:34:52.917Z,6.23
2023-02-27T12:35:58.345Z,6.30
2023-02-27T12:37:05.737Z,6.37
2023-02-27T12:38:08.233Z,6.35
2023-02-27T12:39:16.687Z,6.39
2023-02-27T12:40:18.955Z,6.40
2023-02-27T12:41:27.905Z,6.64
2023-02-27T12:42:38.796Z,6.70
2023-02-27T12:43:50.809Z,6.70
2023-02-27T12:45:26.801Z,6.93
2023-02-27T12:46:55.054Z,6.66
2023-02-27T12:48:15.024Z,6.88
2023-02-27T12:49:25.632Z,7.09
2023-02-27T12:50:30.586Z,6.99
2023-02-27T12:51:52.617Z,6.79
2023-02-27T12:52:54.059Z,6.49
2023-02-27T12:54:10.573Z,6.44
2023-02-27T12:55:15.517Z,6.63
2023-02-27T12:56:19.358Z,6.63
2023-02-27T12:57:42.774Z,6.47
2023-02-27T12:59:08.558Z,6.10
2023-02-27T13:00:13.240Z,6.02
2023-02-27T13:01:24.176Z,6.20
2023-02-27T13:02:44.083Z,6.52
2023-02-27T13:03:56.626Z,6.69
2023-02-27T13:05:07.907Z,6.83
2023-02-27T13:06:27.650Z,6.28
2023-02-27T13:07:33.779Z,6.21
2023-02-27T13:08:45.393Z,5.95
2023-02-27T13:10:02.051Z,6.02
2023-02-27T13:11:39.060Z,6.33
2023-02-27T13:12:42.189Z,6.52
2023-02-27T13:13:47.955Z,6.88
2023-02-27T13:14:53.713Z,6.78
2023-02-27T13:16:05.856Z,6.74
2023-02-27T13:17:27.700Z,6.69
2023-02-27T13:18:52.421Z,6.61
2023-02-27T13:19:57.855Z,6.69
2023-02-27T13:21:13.650Z,6.48
2023-02-27T13:22:24.087Z,6.44
2023-02-27T13:23:48.488Z,6.48
2023-02-27T13:24:50.934Z,5.61
2023-02-27T13:25:52.673Z,5.89
2023-02-27T13:26:57.423Z,6.02
2023-02-27T13:28:03.040Z,6.48
2023-02-27T13:29:05.170Z,6.75
2023-02-27T13:30:14.209Z,6.28
2023-02-27T13:31:23.905Z,6.78
2023-02-27T13:32:43.696Z,6.83
2023-02-27T13:33:54.469Z,6.83
2023-02-27T13:34:59.299Z,6.76
2023-02-27T13:36:09.581Z,6.84
2023-02-27T13:37:11.652Z,6.95
2023-02-27T13:38:32.634Z,7.15
2023-02-27T13:39:47.050Z,7.08
2023-02-27T13:40:48.576Z,6.98
2023-02-27T13:41:50.124Z,7.00
2023-02-27T13:42:52.047Z,6.48
2023-02-27T13:43:53.902Z,6.86
2023-02-27T13:44:58.517Z,6.74
2023-02-27T13:46:01.777Z,6.96
2023-02-27T13:47:29.426Z,7.34
2023-02-27T13:48:40.686Z,7.52
2023-02-27T13:49:42.505Z,7.33
2023-02-27T13:50:43.879Z,7.31
2023-02-27T13:51:47.115Z,6.93
2023-02-27T13:52:48.787Z,6.84
2023-02-27T13:53:50.335Z,6.58
2023-02-27T13:54:55.114Z,6.92
2023-02-27T13:56:20.682Z,7.00
2023-02-27T13:57:24.300Z,6.75
2023-02-27T13:58:25.911Z,6.88
2023-02-27T13:59:57.038Z,7.04
2023-02-27T14:00:59.437Z,7.37
2023-02-27T14:02:02.511Z,7.68
2023-02-27T14:03:19.319Z,8.33
2023-02-27T14:04:20.960Z,8.57
2023-02-27T14:05:35.200Z,8.01
2023-02-27T14:06:43.112Z,7.59
2023-02-27T14:07:58.975Z,7.37
2023-02-27T14:09:14.155Z,7.17
2023-02-27T14:10:27.657Z,7.11
2023-02-27T14:11:39.810Z,7.04
2023-02-27T14:12:45.428Z,7.19
2023-02-27T14:13:50.343Z,7.27
2023-02-27T14:14:51.967Z,7.42
2023-02-27T14:15:55.633Z,7.51
2023-02-27T14:16:57.803Z,7.63
2023-02-27T14:18:13.871Z,7.56
2023-02-27T14:19:17.805Z,7.24
2023-02-27T14:20:30.105Z,7.32
2023-02-27T14:21:56.987Z,7.89
2023-02-27T14:23:17.099Z,8.60
2023-02-27T14:24:19.958Z,8.86
2023-02-27T14:25:24.877Z,8.73
2023-02-27T14:26:27.875Z,8.58
2023-02-27T14:27:30.229Z,8.84
2023-02-27T14:28:55.676Z,8.92
2023-02-27T14:29:59.226Z,9.17
2023-02-27T14:31:01.732Z,9.58
2023-02-27T14:32:04.736Z,9.44
2023-02-27T14:33:15.875Z,9.55
2023-02-27T14:34:20.223Z,9.78
2023-02-27T14:35:21.839Z,9.09
2023-02-27T14:36:27.671Z,8.77
2023-02-27T14:37:29.248Z,8.68
2023-02-27T14:38:30.941Z,8.61
2023-02-27T14:39:34.203Z,8.54
2023-02-27T14:40:39.355Z,7.85
2023-02-27T14:41:49.618Z,7.64
2023-02-27T14:43:05.598Z,7.59
2023-02-27T14:44:21.719Z,7.38
2023-02-27T14:45:24.492Z,6.99
2023-02-27T14:46:29.601Z,7.19
2023-02-27T14:47:32.517Z,7.11
2023-02-27T14:48:34.009Z,6.90
2023-02-27T14:49:36.043Z,6.96
2023-02-27T14:50:40.209Z,6.71
2023-02-27T14:51:41.736Z,6.42
2023-02-27T14:52:43.487Z,6.49
2023-02-27T14:53:45.262Z,6.83
2023-02-27T14:54:47.219Z,7.00
2023-02-27T14:55:56.733Z,7.34
2023-02-27T14:57:04.236Z,7.69